CheckWX is a tool to help pilots better visualize weather data.  It is not intended as a substitute for an official pre-flight weather briefing.

12:22:28 UTC

SBMN TAF
Ponta Pelada Airport
Manaus, Brazil
TAF SBMN 220400Z 2206/2306 07005KT 8000 BKN006 TN25/2207Z TX31/2217Z BECMG 2212/2214 SCT010 BECMG 2216/2218 SCT020 FEW025TCU PROB30 TEMPO 2218/2220 TS SCT025 FEW030CB BECMG 2223/2301 SCT018 BECMG 2301/2303 CAVOK BECMG 2304/2306 8000 SCT008 RMK PFD

Mar-22@
06:00 UTC

Mar-22 @ 06:00 UTC

Mar-22@
12:00 UTC

Mar-22 @ 12:00 UTC

TAF SBMN 220400Z 2206/2306 07005KT 8000 BKN006 TN25/2207Z TX31/2217Z

Expired

Wind
  • 070° at 5 KTS
Cloud Levels
  • Broken at 600' AGL

Mar-22@
12:00 UTC

Mar-22 @ 12:00 UTC

Mar-22@
16:00 UTC

Mar-22 @ 16:00 UTC

BECMG 2212/2214 SCT010

Becoming

Becoming Conditions expected by Fri, Mar 22, 2019 @ 14:00 UTC

Wind
  • 070° at 5 KTS
Cloud Levels
  • Scattered at 1,000' AGL

Mar-22@
16:00 UTC

Mar-22 @ 16:00 UTC

Mar-22@
23:00 UTC

Mar-22 @ 23:00 UTC

BECMG 2216/2218 SCT020 FEW025TCU

Becoming

Becoming Conditions expected by Fri, Mar 22, 2019 @ 18:00 UTC

Wind
  • 070° at 5 KTS
Cloud Levels
  • Scattered at 2,000' AGL
  • Few at 2,500' AGL

Mar-22@
18:00 UTC

Mar-22 @ 18:00 UTC

Mar-22@
20:00 UTC

Mar-22 @ 20:00 UTC

PROB30 TEMPO 2218/2220 TS SCT025 FEW030CB

Temporary - 30% Likelihood

Temporary - 30% Likelihood during this time.

Conditions
Thunderstorm
Cloud Levels
  • Scattered at 2,500' AGL
  • Few at 3,000' AGL

Mar-22@
23:00 UTC

Mar-22 @ 23:00 UTC

Mar-23@
01:00 UTC

Mar-23 @ 01:00 UTC

BECMG 2223/2301 SCT018

Becoming

Becoming Conditions expected by Sat, Mar 23, 2019 @ 01:00 UTC

Wind
  • 070° at 5 KTS
Cloud Levels
  • Scattered at 1,800' AGL

Mar-23@
01:00 UTC

Mar-23 @ 01:00 UTC

Mar-23@
04:00 UTC

Mar-23 @ 04:00 UTC

BECMG 2301/2303 CAVOK

Becoming

Becoming Conditions expected by Sat, Mar 23, 2019 @ 03:00 UTC

Wind
  • 070° at 5 KTS
Conditions
No significant weather
Cloud Levels
  • No significant clouds

Mar-23@
04:00 UTC

Mar-23 @ 04:00 UTC

Mar-23@
06:00 UTC

Mar-23 @ 06:00 UTC

BECMG 2304/2306 8000 SCT008 RMK PFD

Becoming

Becoming Conditions expected by Sat, Mar 23, 2019 @ 06:00 UTC

Wind
  • 070° at 5 KTS
Conditions
No significant weather
Cloud Levels
  • Scattered at 800' AGL